sensor_id;sensor_type;location;lat;lon;timestamp;pressure;altitude;pressure_sealevel;temperature;humidity
72855;BME280;60991;51.278;22.550;2024-02-26T00:00:26;98403.56;;;12.70;67.08
72855;BME280;60991;51.278;22.550;2024-02-26T00:01:56;98403.03;;;12.73;67.00
72855;BME280;60991;51.278;22.550;2024-02-26T00:03:27;98399.81;;;12.76;66.67
72855;BME280;60991;51.278;22.550;2024-02-26T00:04:57;98401.38;;;12.82;66.79
72855;BME280;60991;51.278;22.550;2024-02-26T00:06:27;98385.91;;;12.84;66.82
72855;BME280;60991;51.278;22.550;2024-02-26T00:07:57;98397.59;;;12.89;66.61
72855;BME280;60991;51.278;22.550;2024-02-26T00:09:28;98394.44;;;12.81;66.84
72855;BME280;60991;51.278;22.550;2024-02-26T00:10:58;98395.56;;;12.75;67.04
72855;BME280;60991;51.278;22.550;2024-02-26T00:12:28;98396.38;;;12.76;66.88
72855;BME280;60991;51.278;22.550;2024-02-26T00:13:58;98392.09;;;12.80;66.93
72855;BME280;60991;51.278;22.550;2024-02-26T00:15:28;98383.38;;;12.64;67.37
72855;BME280;60991;51.278;22.550;2024-02-26T00:16:59;98388.75;;;12.54;67.59
72855;BME280;60991;51.278;22.550;2024-02-26T00:18:30;98390.03;;;12.62;67.81
72855;BME280;60991;51.278;22.550;2024-02-26T00:20:01;98389.47;;;12.70;67.64
72855;BME280;60991;51.278;22.550;2024-02-26T00:21:32;98389.75;;;12.63;67.44
72855;BME280;60991;51.278;22.550;2024-02-26T00:23:02;98385.56;;;12.57;67.50
72855;BME280;60991;51.278;22.550;2024-02-26T00:24:33;98380.19;;;12.62;67.82
72855;BME280;60991;51.278;22.550;2024-02-26T00:26:03;98378.88;;;12.60;67.65
72855;BME280;60991;51.278;22.550;2024-02-26T00:27:33;98373.31;;;12.51;68.21
72855;BME280;60991;51.278;22.550;2024-02-26T00:29:03;98379.28;;;12.28;69.04
72855;BME280;60991;51.278;22.550;2024-02-26T00:30:33;98375.28;;;12.30;69.22
72855;BME280;60991;51.278;22.550;2024-02-26T00:32:04;98372.09;;;12.33;68.63
72855;BME280;60991;51.278;22.550;2024-02-26T00:33:34;98380.00;;;12.43;68.18
72855;BME280;60991;51.278;22.550;2024-02-26T00:35:05;98379.47;;;12.46;68.84
72855;BME280;60991;51.278;22.550;2024-02-26T00:36:36;98376.59;;;12.43;68.23
72855;BME280;60991;51.278;22.550;2024-02-26T00:38:06;98374.47;;;12.40;68.67
72855;BME280;60991;51.278;22.550;2024-02-26T00:39:36;98375.03;;;12.32;68.74
72855;BME280;60991;51.278;22.550;2024-02-26T00:41:07;98365.94;;;12.43;68.37
72855;BME280;60991;51.278;22.550;2024-02-26T00:42:37;98368.03;;;12.46;68.50
72855;BME280;60991;51.278;22.550;2024-02-26T00:44:07;98371.22;;;12.48;68.52
72855;BME280;60991;51.278;22.550;2024-02-26T00:45:37;98369.88;;;12.45;68.67
72855;BME280;60991;51.278;22.550;2024-02-26T00:47:08;98371.25;;;12.43;68.36
72855;BME280;60991;51.278;22.550;2024-02-26T00:48:38;98362.50;;;12.37;69.03
72855;BME280;60991;51.278;22.550;2024-02-26T00:50:09;98364.09;;;12.38;68.93
72855;BME280;60991;51.278;22.550;2024-02-26T00:51:39;98359.13;;;12.11;69.72
72855;BME280;60991;51.278;22.550;2024-02-26T00:53:09;98371.16;;;11.99;70.29
72855;BME280;60991;51.278;22.550;2024-02-26T00:54:40;98367.66;;;12.08;69.91
72855;BME280;60991;51.278;22.550;2024-02-26T00:56:10;98368.16;;;12.21;69.80
72855;BME280;60991;51.278;22.550;2024-02-26T00:57:40;98368.47;;;12.09;70.31
72855;BME280;60991;51.278;22.550;2024-02-26T00:59:10;98368.69;;;12.23;69.92
72855;BME280;60991;51.278;22.550;2024-02-26T01:00:41;98360.72;;;12.23;69.87
72855;BME280;60991;51.278;22.550;2024-02-26T01:02:11;98369.19;;;12.25;70.02
72855;BME280;60991;51.278;22.550;2024-02-26T01:03:41;98362.84;;;12.21;70.36
72855;BME280;60991;51.278;22.550;2024-02-26T01:05:12;98357.19;;;12.27;70.00
72855;BME280;60991;51.278;22.550;2024-02-26T01:06:42;98351.31;;;12.35;69.81
72855;BME280;60991;51.278;22.550;2024-02-26T01:08:12;98353.16;;;12.40;69.36
72855;BME280;60991;51.278;22.550;2024-02-26T01:09:42;98360.88;;;12.41;69.63
72855;BME280;60991;51.278;22.550;2024-02-26T01:11:13;98359.56;;;12.34;69.92
72855;BME280;60991;51.278;22.550;2024-02-26T01:12:43;98351.06;;;12.37;69.65
72855;BME280;60991;51.278;22.550;2024-02-26T01:14:13;98352.41;;;12.29;70.15
72855;BME280;60991;51.278;22.550;2024-02-26T01:15:43;98348.41;;;12.32;70.03
72855;BME280;60991;51.278;22.550;2024-02-26T01:17:14;98341.84;;;12.14;70.51
72855;BME280;60991;51.278;22.550;2024-02-26T01:18:44;98346.16;;;12.00;71.59
72855;BME280;60991;51.278;22.550;2024-02-26T01:20:14;98349.31;;;12.07;70.98
72855;BME280;60991;51.278;22.550;2024-02-26T01:21:44;98353.53;;;12.18;70.84
72855;BME280;60991;51.278;22.550;2024-02-26T01:23:15;98355.94;;;12.14;70.81
72855;BME280;60991;51.278;22.550;2024-02-26T01:24:45;98357.81;;;12.14;71.13
72855;BME280;60991;51.278;22.550;2024-02-26T01:26:15;98350.88;;;12.18;70.89
72855;BME280;60991;51.278;22.550;2024-02-26T01:27:46;98354.31;;;12.24;70.70
72855;BME280;60991;51.278;22.550;2024-02-26T01:29:16;98352.94;;;12.26;70.38
72855;BME280;60991;51.278;22.550;2024-02-26T01:30:46;98359.13;;;12.22;70.51
72855;BME280;60991;51.278;22.550;2024-02-26T01:32:16;98357.53;;;12.21;71.03
72855;BME280;60991;51.278;22.550;2024-02-26T01:33:46;98347.63;;;12.26;70.70
72855;BME280;60991;51.278;22.550;2024-02-26T01:35:17;98358.31;;;12.16;71.15
72855;BME280;60991;51.278;22.550;2024-02-26T01:36:47;98353.81;;;12.17;71.25
72855;BME280;60991;51.278;22.550;2024-02-26T01:38:17;98357.06;;;12.03;71.37
72855;BME280;60991;51.278;22.550;2024-02-26T01:39:48;98364.78;;;11.95;71.98
72855;BME280;60991;51.278;22.550;2024-02-26T01:41:18;98359.47;;;11.90;71.95
72855;BME280;60991;51.278;22.550;2024-02-26T01:42:48;98351.75;;;11.98;71.70
72855;BME280;60991;51.278;22.550;2024-02-26T01:44:18;98351.97;;;12.07;71.96
72855;BME280;60991;51.278;22.550;2024-02-26T01:45:49;98355.41;;;12.12;71.74
72855;BME280;60991;51.278;22.550;2024-02-26T01:47:19;98359.94;;;12.07;71.82
72855;BME280;60991;51.278;22.550;2024-02-26T01:48:50;98365.59;;;11.95;72.26
72855;BME280;60991;51.278;22.550;2024-02-26T01:50:20;98369.56;;;11.98;71.95
72855;BME280;60991;51.278;22.550;2024-02-26T01:51:51;98372.75;;;11.95;72.07
72855;BME280;60991;51.278;22.550;2024-02-26T01:53:21;98373.31;;;11.92;72.49
72855;BME280;60991;51.278;22.550;2024-02-26T01:54:52;98375.69;;;11.93;72.22
72855;BME280;60991;51.278;22.550;2024-02-26T01:56:22;98379.94;;;11.89;72.55
72855;BME280;60991;51.278;22.550;2024-02-26T01:57:53;98379.41;;;11.92;72.60
72855;BME280;60991;51.278;22.550;2024-02-26T01:59:24;98373.84;;;11.89;72.57
72855;BME280;60991;51.278;22.550;2024-02-26T02:00:54;98377.03;;;11.96;72.69
72855;BME280;60991;51.278;22.550;2024-02-26T02:02:25;98378.34;;;11.98;72.38
72855;BME280;60991;51.278;22.550;2024-02-26T02:03:57;98382.59;;;11.89;72.50
72855;BME280;60991;51.278;22.550;2024-02-26T02:05:28;98383.72;;;11.78;72.83
72855;BME280;60991;51.278;22.550;2024-02-26T02:07:00;98384.25;;;11.85;72.99
72855;BME280;60991;51.278;22.550;2024-02-26T02:08:30;98386.09;;;11.79;72.97
72855;BME280;60991;51.278;22.550;2024-02-26T02:10:00;98386.09;;;11.79;73.01
72855;BME280;60991;51.278;22.550;2024-02-26T02:11:30;98380.22;;;11.88;72.72
72855;BME280;60991;51.278;22.550;2024-02-26T02:13:01;98383.44;;;11.85;73.05
72855;BME280;60991;51.278;22.550;2024-02-26T02:14:31;98384.72;;;11.92;72.64
72855;BME280;60991;51.278;22.550;2024-02-26T02:16:01;98380.47;;;11.96;72.32
72855;BME280;60991;51.278;22.550;2024-02-26T02:17:31;98378.34;;;11.98;72.31
72855;BME280;60991;51.278;22.550;2024-02-26T02:19:02;98376.22;;;11.95;72.54
72855;BME280;60991;51.278;22.550;2024-02-26T02:20:33;98375.94;;;11.97;72.46
72855;BME280;60991;51.278;22.550;2024-02-26T02:22:03;98373.25;;;12.07;72.24
72855;BME280;60991;51.278;22.550;2024-02-26T02:23:33;98373.50;;;12.10;71.92
72855;BME280;60991;51.278;22.550;2024-02-26T02:25:04;98373.50;;;12.10;72.16
72855;BME280;60991;51.278;22.550;2024-02-26T02:26:34;98368.44;;;12.14;72.01
72855;BME280;60991;51.278;22.550;2024-02-26T02:28:05;98361.81;;;12.11;72.29
72855;BME280;60991;51.278;22.550;2024-02-26T02:29:36;98369.78;;;12.11;72.12
72855;BME280;60991;51.278;22.550;2024-02-26T02:31:07;98365.78;;;12.09;72.25
72855;BME280;60991;51.278;22.550;2024-02-26T02:32:38;98365.84;;;12.04;72.43
72855;BME280;60991;51.278;22.550;2024-02-26T02:34:09;98368.22;;;12.00;72.63
72855;BME280;60991;51.278;22.550;2024-02-26T02:35:39;98365.25;;;12.07;72.27
72855;BME280;60991;51.278;22.550;2024-02-26T02:37:10;98366.59;;;12.09;72.44
72855;BME280;60991;51.278;22.550;2024-02-26T02:38:49;98367.44;;;12.05;72.83
72855;BME280;60991;51.278;22.550;2024-02-26T02:40:19;98368.22;;;12.05;72.49
72855;BME280;60991;51.278;22.550;2024-02-26T02:41:50;98359.47;;;12.00;72.72
72855;BME280;60991;51.278;22.550;2024-02-26T02:43:20;98360.00;;;12.02;72.60
72855;BME280;60991;51.278;22.550;2024-02-26T02:44:50;98359.13;;;12.11;72.59
72855;BME280;60991;51.278;22.550;2024-02-26T02:46:20;98366.38;;;12.01;72.56
72855;BME280;60991;51.278;22.550;2024-02-26T02:47:51;98376.00;;;11.87;73.16
72855;BME280;60991;51.278;22.550;2024-02-26T02:49:21;98368.25;;;11.90;72.97
72855;BME280;60991;51.278;22.550;2024-02-26T02:50:52;98372.50;;;11.91;73.22
72855;BME280;60991;51.278;22.550;2024-02-26T02:52:23;98374.94;;;11.77;73.85
72855;BME280;60991;51.278;22.550;2024-02-26T02:53:53;98378.66;;;11.76;73.62
72855;BME280;60991;51.278;22.550;2024-02-26T02:55:24;98380.53;;;11.81;73.68
72855;BME280;60991;51.278;22.550;2024-02-26T02:56:55;98374.41;;;11.86;73.85
72855;BME280;60991;51.278;22.550;2024-02-26T02:58:25;98378.13;;;11.85;73.81
72855;BME280;60991;51.278;22.550;2024-02-26T02:59:55;98380.25;;;11.77;74.21
72855;BME280;60991;51.278;22.550;2024-02-26T03:01:25;98378.09;;;11.74;74.02
72855;BME280;60991;51.278;22.550;2024-02-26T03:02:56;98374.16;;;11.67;74.43
72855;BME280;60991;51.278;22.550;2024-02-26T03:04:26;98377.84;;;11.71;74.25
72855;BME280;60991;51.278;22.550;2024-02-26T03:05:56;98374.66;;;11.79;74.46
72855;BME280;60991;51.278;22.550;2024-02-26T03:07:26;98372.56;;;11.66;74.85
72855;BME280;60991;51.278;22.550;2024-02-26T03:08:57;98378.91;;;11.70;74.26
72855;BME280;60991;51.278;22.550;2024-02-26T03:10:27;98378.94;;;11.60;75.09
72855;BME280;60991;51.278;22.550;2024-02-26T03:11:57;98386.34;;;11.73;74.63
72855;BME280;60991;51.278;22.550;2024-02-26T03:13:27;98386.06;;;11.74;74.33
72855;BME280;60991;51.278;22.550;2024-02-26T03:14:58;98386.38;;;11.78;74.44
72855;BME280;60991;51.278;22.550;2024-02-26T03:16:28;98382.34;;;11.70;74.42
72855;BME280;60991;51.278;22.550;2024-02-26T03:17:58;98380.53;;;11.81;74.10
72855;BME280;60991;51.278;22.550;2024-02-26T03:19:28;98387.44;;;11.77;74.30
72855;BME280;60991;51.278;22.550;2024-02-26T03:20:59;98390.06;;;11.72;74.67
72855;BME280;60991;51.278;22.550;2024-02-26T03:22:29;98387.69;;;11.81;74.33
72855;BME280;60991;51.278;22.550;2024-02-26T03:23:59;98384.78;;;11.82;74.08
72855;BME280;60991;51.278;22.550;2024-02-26T03:25:29;98382.13;;;11.77;74.67
72855;BME280;60991;51.278;22.550;2024-02-26T03:26:59;98385.84;;;11.81;74.40
72855;BME280;60991;51.278;22.550;2024-02-26T03:28:30;98395.69;;;11.86;73.97
72855;BME280;60991;51.278;22.550;2024-02-26T03:30:00;98389.28;;;11.82;74.26
72855;BME280;60991;51.278;22.550;2024-02-26T03:31:31;98393.56;;;11.67;75.16
72855;BME280;60991;51.278;22.550;2024-02-26T03:33:01;98385.31;;;11.69;74.76
72855;BME280;60991;51.278;22.550;2024-02-26T03:34:32;98392.22;;;11.60;75.08
72855;BME280;60991;51.278;22.550;2024-02-26T03:36:03;98384.78;;;11.62;75.50
72855;BME280;60991;51.278;22.550;2024-02-26T03:37:33;98385.84;;;11.66;75.14
72855;BME280;60991;51.278;22.550;2024-02-26T03:39:04;98390.88;;;11.72;75.14
72855;BME280;60991;51.278;22.550;2024-02-26T03:40:34;98393.03;;;11.65;74.91
72855;BME280;60991;51.278;22.550;2024-02-26T03:42:04;98392.47;;;11.73;74.82
72855;BME280;60991;51.278;22.550;2024-02-26T03:43:34;98396.44;;;11.71;74.77
72855;BME280;60991;51.278;22.550;2024-02-26T03:45:05;98394.09;;;11.79;74.52
72855;BME280;60991;51.278;22.550;2024-02-26T03:46:36;98387.69;;;11.86;74.77
72855;BME280;60991;51.278;22.550;2024-02-26T03:48:06;98388.72;;;11.90;74.62
72855;BME280;60991;51.278;22.550;2024-02-26T03:49:37;98382.34;;;11.91;74.28
72855;BME280;60991;51.278;22.550;2024-02-26T03:51:08;98373.31;;;11.92;74.35
72855;BME280;60991;51.278;22.550;2024-02-26T03:52:39;98379.94;;;11.94;74.45
72855;BME280;60991;51.278;22.550;2024-02-26T03:54:09;98378.34;;;11.93;74.12
72855;BME280;60991;51.278;22.550;2024-02-26T03:55:39;98383.13;;;11.96;73.67
72855;BME280;60991;51.278;22.550;2024-02-26T03:57:09;98382.34;;;11.96;73.95
72855;BME280;60991;51.278;22.550;2024-02-26T03:58:40;98378.06;;;12.00;73.90
72855;BME280;60991;51.278;22.550;2024-02-26T04:00:10;98377.00;;;12.01;74.04
72855;BME280;60991;51.278;22.550;2024-02-26T04:01:47;98377.81;;;11.91;74.34
72855;BME280;60991;51.278;22.550;2024-02-26T04:03:17;98379.41;;;11.97;74.28
72855;BME280;60991;51.278;22.550;2024-02-26T04:04:47;98377.00;;;12.01;73.88
72855;BME280;60991;51.278;22.550;2024-02-26T04:06:18;98369.53;;;12.08;74.00
72855;BME280;60991;51.278;22.550;2024-02-26T04:07:48;98375.63;;;12.08;73.74
72855;BME280;60991;51.278;22.550;2024-02-26T04:09:18;98377.78;;;12.06;73.82
72855;BME280;60991;51.278;22.550;2024-02-26T04:10:48;98381.75;;;12.09;73.69
72855;BME280;60991;51.278;22.550;2024-02-26T04:12:19;98388.66;;;12.10;73.93
72855;BME280;60991;51.278;22.550;2024-02-26T04:13:49;98399.56;;;12.08;73.97
72855;BME280;60991;51.278;22.550;2024-02-26T04:15:19;98393.00;;;11.86;74.88
72855;BME280;60991;51.278;22.550;2024-02-26T04:16:49;98400.97;;;11.91;74.63
72855;BME280;60991;51.278;22.550;2024-02-26T04:18:20;98403.38;;;11.87;74.89
72855;BME280;60991;51.278;22.550;2024-02-26T04:19:50;98397.00;;;11.78;75.25
72855;BME280;60991;51.278;22.550;2024-02-26T04:21:20;98399.66;;;11.68;75.78
72855;BME280;60991;51.278;22.550;2024-02-26T04:22:50;98404.41;;;11.71;75.91
72855;BME280;60991;51.278;22.550;2024-02-26T04:24:21;98404.72;;;11.64;75.88
72855;BME280;60991;51.278;22.550;2024-02-26T04:25:51;98403.13;;;11.63;75.93
72855;BME280;60991;51.278;22.550;2024-02-26T04:27:21;98406.56;;;11.74;75.88
72855;BME280;60991;51.278;22.550;2024-02-26T04:28:51;98403.38;;;11.67;75.88
72855;BME280;60991;51.278;22.550;2024-02-26T04:30:21;98401.00;;;11.65;75.74
72855;BME280;60991;51.278;22.550;2024-02-26T04:31:52;98403.91;;;11.74;75.49
72855;BME280;60991;51.278;22.550;2024-02-26T04:33:22;98398.34;;;11.81;75.24
72855;BME280;60991;51.278;22.550;2024-02-26T04:34:52;98401.00;;;11.86;75.00
72855;BME280;60991;51.278;22.550;2024-02-26T04:36:22;98395.91;;;11.89;74.97
72855;BME280;60991;51.278;22.550;2024-02-26T04:37:53;98393.50;;;11.93;75.02
72855;BME280;60991;51.278;22.550;2024-02-26T04:39:23;98391.66;;;11.98;74.89
72855;BME280;60991;51.278;22.550;2024-02-26T04:40:54;98399.09;;;12.01;74.44
72855;BME280;60991;51.278;22.550;2024-02-26T04:42:24;98393.50;;;12.03;74.59
72855;BME280;60991;51.278;22.550;2024-02-26T04:43:54;98392.97;;;12.01;74.72
72855;BME280;60991;51.278;22.550;2024-02-26T04:45:24;98386.06;;;12.00;74.70
72855;BME280;60991;51.278;22.550;2024-02-26T04:46:55;98389.78;;;12.04;74.34
72855;BME280;60991;51.278;22.550;2024-02-26T04:48:26;98386.84;;;12.05;74.47
72855;BME280;60991;51.278;22.550;2024-02-26T04:49:56;98384.97;;;12.06;74.58
72855;BME280;60991;51.278;22.550;2024-02-26T04:51:26;98386.06;;;12.05;74.34
72855;BME280;60991;51.278;22.550;2024-02-26T04:52:56;98383.09;;;12.06;74.37
72855;BME280;60991;51.278;22.550;2024-02-26T04:54:27;98378.28;;;12.08;74.06
72855;BME280;60991;51.278;22.550;2024-02-26T04:55:57;98380.16;;;12.08;74.34
72855;BME280;60991;51.278;22.550;2024-02-26T04:57:27;98379.38;;;12.07;74.36
72855;BME280;60991;51.278;22.550;2024-02-26T04:58:57;98379.63;;;12.11;73.82
72855;BME280;60991;51.278;22.550;2024-02-26T05:00:28;98377.22;;;12.09;74.04
72855;BME280;60991;51.278;22.550;2024-02-26T05:01:58;98380.16;;;12.13;73.97
72855;BME280;60991;51.278;22.550;2024-02-26T05:03:28;98395.03;;;12.14;73.81
72855;BME280;60991;51.278;22.550;2024-02-26T05:04:58;98400.38;;;12.14;73.86
72855;BME280;60991;51.278;22.550;2024-02-26T05:06:29;98396.38;;;12.06;74.22
72855;BME280;60991;51.278;22.550;2024-02-26T05:07:59;98391.66;;;11.98;74.52
72855;BME280;60991;51.278;22.550;2024-02-26T05:09:29;98396.44;;;11.96;74.88
72855;BME280;60991;51.278;22.550;2024-02-26T05:11:00;98399.94;;;11.87;74.70
72855;BME280;60991;51.278;22.550;2024-02-26T05:12:30;98398.84;;;11.88;74.54
72855;BME280;60991;51.278;22.550;2024-02-26T05:14:00;98400.72;;;11.82;74.98
72855;BME280;60991;51.278;22.550;2024-02-26T05:15:31;98397.53;;;11.80;74.88
72855;BME280;60991;51.278;22.550;2024-02-26T05:17:01;98396.47;;;11.81;75.09
72855;BME280;60991;51.278;22.550;2024-02-26T05:18:31;98401.00;;;11.86;74.83
72855;BME280;60991;51.278;22.550;2024-02-26T05:20:01;98401.50;;;11.88;74.42
72855;BME280;60991;51.278;22.550;2024-02-26T05:21:32;98398.03;;;11.92;74.53
72855;BME280;60991;51.278;22.550;2024-02-26T05:23:02;98407.88;;;11.92;74.87
72855;BME280;60991;51.278;22.550;2024-02-26T05:24:32;98408.94;;;11.96;74.70
72855;BME280;60991;51.278;22.550;2024-02-26T05:26:03;98412.13;;;11.98;74.14
72855;BME280;60991;51.278;22.550;2024-02-26T05:27:33;98407.06;;;11.96;74.57
72855;BME280;60991;51.278;22.550;2024-02-26T05:29:03;98409.47;;;11.98;74.54
72855;BME280;60991;51.278;22.550;2024-02-26T05:30:33;98402.00;;;12.00;74.14
72855;BME280;60991;51.278;22.550;2024-02-26T05:32:06;98399.88;;;12.02;74.36
72855;BME280;60991;51.278;22.550;2024-02-26T05:33:36;98401.47;;;12.03;74.22
72855;BME280;60991;51.278;22.550;2024-02-26T05:35:07;98407.31;;;12.05;73.96
72855;BME280;60991;51.278;22.550;2024-02-26T05:36:37;98403.34;;;12.02;73.95
72855;BME280;60991;51.278;22.550;2024-02-26T05:38:07;98406.53;;;11.94;74.63
72855;BME280;60991;51.278;22.550;2024-02-26T05:39:37;98405.22;;;11.97;74.31
72855;BME280;60991;51.278;22.550;2024-02-26T05:41:08;98411.31;;;11.97;74.57
72855;BME280;60991;51.278;22.550;2024-02-26T05:42:38;98412.13;;;11.88;74.75
72855;BME280;60991;51.278;22.550;2024-02-26T05:44:09;98415.84;;;11.92;74.63
72855;BME280;60991;51.278;22.550;2024-02-26T05:45:39;98415.31;;;11.95;74.69
72855;BME280;60991;51.278;22.550;2024-02-26T05:47:09;98415.06;;;11.96;74.55
72855;BME280;60991;51.278;22.550;2024-02-26T05:48:39;98410.00;;;12.00;74.33
72855;BME280;60991;51.278;22.550;2024-02-26T05:50:10;98413.44;;;12.00;73.98
72855;BME280;60991;51.278;22.550;2024-02-26T05:51:40;98410.78;;;11.95;74.47
72855;BME280;60991;51.278;22.550;2024-02-26T05:53:11;98411.59;;;11.91;74.48
72855;BME280;60991;51.278;22.550;2024-02-26T05:54:41;98418.53;;;11.87;75.04
72855;BME280;60991;51.278;22.550;2024-02-26T05:56:11;98412.41;;;11.91;74.86
72855;BME280;60991;51.278;22.550;2024-02-26T05:57:41;98419.59;;;11.86;74.97
72855;BME280;60991;51.278;22.550;2024-02-26T05:59:12;98424.09;;;11.90;74.52
72855;BME280;60991;51.278;22.550;2024-02-26T06:00:42;98418.78;;;11.95;74.41
72855;BME280;60991;51.278;22.550;2024-02-26T06:02:12;98417.97;;;12.00;74.36
72855;BME280;60991;51.278;22.550;2024-02-26T06:03:43;98417.72;;;12.01;74.32
72855;BME280;60991;51.278;22.550;2024-02-26T06:05:13;98422.50;;;12.04;74.19
72855;BME280;60991;51.278;22.550;2024-02-26T06:06:44;98428.59;;;12.05;73.94
72855;BME280;60991;51.278;22.550;2024-02-26T06:08:15;98419.56;;;12.06;73.94
72855;BME280;60991;51.278;22.550;2024-02-26T06:09:45;98425.66;;;12.06;73.76
72855;BME280;60991;51.278;22.550;2024-02-26T06:11:15;98430.97;;;12.06;73.93
72855;BME280;60991;51.278;22.550;2024-02-26T06:12:45;98424.09;;;12.00;74.34
72855;BME280;60991;51.278;22.550;2024-02-26T06:14:16;98430.22;;;12.01;74.03
72855;BME280;60991;51.278;22.550;2024-02-26T06:15:46;98433.41;;;11.98;74.42
72855;BME280;60991;51.278;22.550;2024-02-26T06:17:16;98427.81;;;11.99;74.30
72855;BME280;60991;51.278;22.550;2024-02-26T06:18:46;98428.06;;;12.03;74.07
72855;BME280;60991;51.278;22.550;2024-02-26T06:20:16;98434.47;;;12.02;74.02
72855;BME280;60991;51.278;22.550;2024-02-26T06:21:47;98434.19;;;12.03;73.96
72855;BME280;60991;51.278;22.550;2024-02-26T06:23:17;98439.50;;;12.03;73.96
72855;BME280;60991;51.278;22.550;2024-02-26T06:24:47;98435.00;;;12.04;74.08
72855;BME280;60991;51.278;22.550;2024-02-26T06:26:18;98430.97;;;12.06;74.01
72855;BME280;60991;51.278;22.550;2024-02-26T06:27:48;98437.66;;;12.04;73.92
72855;BME280;60991;51.278;22.550;2024-02-26T06:29:18;98433.94;;;12.05;74.10
72855;BME280;60991;51.278;22.550;2024-02-26T06:30:48;98434.44;;;12.07;74.19
72855;BME280;60991;51.278;22.550;2024-02-26T06:32:18;98438.94;;;12.06;74.15
72855;BME280;60991;51.278;22.550;2024-02-26T06:33:49;98438.72;;;12.03;74.02
72855;BME280;60991;51.278;22.550;2024-02-26T06:35:19;98435.00;;;12.04;74.45
72855;BME280;60991;51.278;22.550;2024-02-26T06:36:50;98436.06;;;11.98;74.12
72855;BME280;60991;51.278;22.550;2024-02-26T06:38:20;98438.47;;;11.99;73.97
72855;BME280;60991;51.278;22.550;2024-02-26T06:39:50;98431.00;;;12.01;73.94
72855;BME280;60991;51.278;22.550;2024-02-26T06:41:21;98436.31;;;12.01;74.18
72855;BME280;60991;51.278;22.550;2024-02-26T06:42:51;98432.06;;;12.00;74.19
72855;BME280;60991;51.278;22.550;2024-02-26T06:44:21;98434.47;;;11.92;74.43
72855;BME280;60991;51.278;22.550;2024-02-26T06:45:51;98441.66;;;11.91;74.30
72855;BME280;60991;51.278;22.550;2024-02-26T06:47:22;98443.50;;;11.91;74.27
72855;BME280;60991;51.278;22.550;2024-02-26T06:48:52;98439.28;;;11.79;74.45
72855;BME280;60991;51.278;22.550;2024-02-26T06:50:22;98438.50;;;11.79;74.68
72855;BME280;60991;51.278;22.550;2024-02-26T06:51:52;98438.50;;;11.79;74.82
72855;BME280;60991;51.278;22.550;2024-02-26T06:53:23;98439.56;;;11.78;74.90
72855;BME280;60991;51.278;22.550;2024-02-26T06:54:53;98444.88;;;11.83;74.39
72855;BME280;60991;51.278;22.550;2024-02-26T06:56:23;98451.25;;;11.87;74.43
72855;BME280;60991;51.278;22.550;2024-02-26T06:57:53;98454.72;;;11.77;74.73
72855;BME280;60991;51.278;22.550;2024-02-26T06:59:23;98452.31;;;11.86;74.71
72855;BME280;60991;51.278;22.550;2024-02-26T07:00:54;98455.50;;;11.78;74.69
72855;BME280;60991;51.278;22.550;2024-02-26T07:02:24;98452.31;;;11.76;75.16
72855;BME280;60991;51.278;22.550;2024-02-26T07:03:54;98453.66;;;11.78;74.81
72855;BME280;60991;51.278;22.550;2024-02-26T07:05:24;98451.25;;;11.87;74.72
72855;BME280;60991;51.278;22.550;2024-02-26T07:06:55;98448.59;;;11.87;74.86
72855;BME280;60991;51.278;22.550;2024-02-26T07:08:25;98447.75;;;11.92;74.49
72855;BME280;60991;51.278;22.550;2024-02-26T07:09:55;98444.84;;;11.93;74.32
72855;BME280;60991;51.278;22.550;2024-02-26T07:11:25;98452.03;;;11.98;74.35
72855;BME280;60991;51.278;22.550;2024-02-26T07:12:56;98452.03;;;11.98;74.60
72855;BME280;60991;51.278;22.550;2024-02-26T07:14:26;98456.00;;;12.00;74.05
72855;BME280;60991;51.278;22.550;2024-02-26T07:15:56;98459.47;;;12.01;73.92
72855;BME280;60991;51.278;22.550;2024-02-26T07:17:26;98460.53;;;12.00;74.02
72855;BME280;60991;51.278;22.550;2024-02-26T07:18:57;98455.47;;;12.03;73.88
72855;BME280;60991;51.278;22.550;2024-02-26T07:20:27;98454.16;;;12.06;74.36
72855;BME280;60991;51.278;22.550;2024-02-26T07:21:57;98462.13;;;12.06;74.31
72855;BME280;60991;51.278;22.550;2024-02-26T07:23:27;98459.72;;;12.04;74.30
72855;BME280;60991;51.278;22.550;2024-02-26T07:24:58;98461.81;;;12.07;74.10
72855;BME280;60991;51.278;22.550;2024-02-26T07:26:28;98460.22;;;12.11;73.97
72855;BME280;60991;51.278;22.550;2024-02-26T07:27:58;98458.91;;;12.14;74.08
72855;BME280;60991;51.278;22.550;2024-02-26T07:29:28;98467.41;;;12.16;73.86
72855;BME280;60991;51.278;22.550;2024-02-26T07:30:59;98462.09;;;12.16;74.02
72855;BME280;60991;51.278;22.550;2024-02-26T07:32:29;98466.34;;;12.17;74.08
72855;BME280;60991;51.278;22.550;2024-02-26T07:33:59;98470.59;;;12.18;73.71
72855;BME280;60991;51.278;22.550;2024-02-26T07:35:29;98466.34;;;12.22;74.06
72855;BME280;60991;51.278;22.550;2024-02-26T07:37:00;98466.56;;;12.26;74.19
72855;BME280;60991;51.278;22.550;2024-02-26T07:38:30;98467.38;;;12.26;74.12
72855;BME280;60991;51.278;22.550;2024-02-26T07:40:00;98460.19;;;12.27;74.05
72855;BME280;60991;51.278;22.550;2024-02-26T07:41:31;98463.38;;;12.29;73.79
72855;BME280;60991;51.278;22.550;2024-02-26T07:43:01;98458.06;;;12.29;73.93
72855;BME280;60991;51.278;22.550;2024-02-26T07:44:32;98467.91;;;12.28;73.72
72855;BME280;60991;51.278;22.550;2024-02-26T07:46:03;98471.41;;;12.24;73.70
72855;BME280;60991;51.278;22.550;2024-02-26T07:47:33;98470.81;;;12.27;73.92
72855;BME280;60991;51.278;22.550;2024-02-26T07:49:03;98469.75;;;12.28;74.02
72855;BME280;60991;51.278;22.550;2024-02-26T07:50:34;98471.66;;;12.07;74.23
72855;BME280;60991;51.278;22.550;2024-02-26T07:52:04;98475.66;;;12.09;74.54